Time;durP1;ratioP1;P1;durP2;ratioP2;P2;SDS_P1;SDS_P2;PMS_P1;PMS_P2;Temp;Humidity;BMP_temperature;BMP_pressure;BME280_temperature;BME280_humidity;BME280_pressure;Samples;Min_cycle;Max_cycle;Signal;HPM_P1;HPM_P2
2022/04/09 00:00:56;;;;;;;1.13;0.65;;;13.50;87.90;;;;;;5052988;28;20036;-72
2022/04/09 00:03:22;;;;;;;0.85;0.70;;;13.50;87.50;;;;;;5052402;28;20040;-71
2022/04/09 00:05:47;;;;;;;0.95;0.60;;;13.50;87.10;;;;;;5053576;28;20029;-71
2022/04/09 00:08:14;;;;;;;1.23;0.70;;;13.50;87.10;;;;;;5052579;28;20021;-72
2022/04/09 00:10:40;;;;;;;0.75;0.52;;;13.50;86.70;;;;;;5052787;28;20394;-72
2022/04/09 00:13:05;;;;;;;0.77;0.65;;;13.50;86.60;;;;;;5053003;28;20032;-71
2022/04/09 00:15:31;;;;;;;0.90;0.80;;;13.50;86.60;;;;;;5052376;28;20032;-71
2022/04/09 00:17:57;;;;;;;2.20;0.88;;;13.50;86.70;;;;;;5052461;28;20021;-71
2022/04/09 00:20:23;;;;;;;1.58;0.90;;;13.50;87.20;;;;;;5052342;28;20036;-72
2022/04/09 00:22:49;;;;;;;1.52;0.80;;;13.50;87.50;;;;;;5052993;28;20075;-71
2022/04/09 00:25:21;;;;;;;1.90;0.75;;;13.50;88.00;;;;;;5052261;28;20037;-71
2022/04/09 00:27:47;;;;;;;1.58;0.80;;;13.50;88.60;;;;;;5052784;28;20024;-71
2022/04/09 00:30:13;;;;;;;1.85;1.00;;;13.50;89.10;;;;;;5051917;28;20548;-72
2022/04/09 00:32:39;;;;;;;1.20;1.00;;;13.40;89.60;;;;;;5052480;28;20099;-72
2022/04/09 00:35:05;;;;;;;1.35;0.82;;;13.40;89.90;;;;;;5052510;28;20072;-72
2022/04/09 00:37:32;;;;;;;1.85;1.00;;;13.40;90.10;;;;;;5052056;28;20378;-72
2022/04/09 00:39:57;;;;;;;0.93;0.82;;;13.30;90.30;;;;;;5052613;28;20025;-71
2022/04/09 00:42:23;;;;;;;2.22;0.93;;;13.30;90.30;;;;;;5051907;28;20054;-72
2022/04/09 00:44:50;;;;;;;1.38;0.82;;;13.30;90.30;;;;;;5052508;28;20025;-72
2022/04/09 00:47:16;;;;;;;1.20;0.82;;;13.30;90.40;;;;;;5051858;28;20025;-72
2022/04/09 00:49:42;;;;;;;1.17;0.90;;;13.30;90.40;;;;;;5051939;28;20420;-72
2022/04/09 00:52:09;;;;;;;1.42;0.73;;;13.20;90.40;;;;;;5052076;28;20021;-71
2022/04/09 00:54:38;;;;;;;1.40;0.95;;;13.20;90.10;;;;;;5051626;28;20063;-71
2022/04/09 00:57:05;;;;;;;2.42;1.15;;;13.30;90.00;;;;;;5052050;28;20056;-72
2022/04/09 00:59:44;;;;;;;1.58;0.95;;;13.20;90.30;;;;;;5051647;28;20043;-72
2022/04/09 01:02:11;;;;;;;1.08;0.80;;;13.20;90.30;;;;;;5052111;28;20021;-72
2022/04/09 01:04:42;;;;;;;0.73;0.65;;;13.20;90.50;;;;;;5052083;28;20110;-72
2022/04/09 01:07:09;;;;;;;1.60;0.75;;;13.20;90.20;;;;;;5051367;28;20028;-72
2022/04/09 01:09:34;;;;;;;1.13;0.90;;;13.20;90.20;;;;;;5051542;28;20041;-72
2022/04/09 01:12:02;;;;;;;2.47;0.80;;;13.20;90.20;;;;;;5052164;28;20025;-72
2022/04/09 01:14:29;;;;;;;1.30;0.80;;;13.10;90.30;;;;;;5051081;28;20481;-72
2022/04/09 01:16:55;;;;;;;1.45;0.95;;;13.10;90.60;;;;;;5052055;28;20029;-72
2022/04/09 01:19:21;;;;;;;1.30;0.80;;;13.10;90.90;;;;;;5051258;28;20039;-72
2022/04/09 01:21:48;;;;;;;1.88;0.95;;;13.10;91.10;;;;;;5052009;28;20029;-71
2022/04/09 01:24:14;;;;;;;1.98;1.02;;;13.00;91.30;;;;;;5051474;28;20045;-71
2022/04/09 01:26:40;;;;;;;2.25;1.00;;;13.00;91.70;;;;;;5051851;28;20441;-72
2022/04/09 01:29:06;;;;;;;3.08;1.20;;;13.00;91.90;;;;;;5051909;28;20108;-72
2022/04/09 01:31:32;;;;;;;3.45;1.30;;;13.00;92.20;;;;;;5051316;28;20033;-71
2022/04/09 01:33:58;;;;;;;0.93;0.70;;;12.90;92.70;;;;;;5051872;28;20120;-72
2022/04/09 01:36:23;;;;;;;1.40;0.90;;;12.90;93.20;;;;;;5051250;28;20060;-72
2022/04/09 01:38:49;;;;;;;5.47;1.08;;;12.90;93.30;;;;;;5052144;28;20082;-71
2022/04/09 01:41:15;;;;;;;4.72;1.35;;;12.90;93.70;;;;;;5051671;28;20441;-71
2022/04/09 01:43:41;;;;;;;1.55;0.90;;;12.90;93.90;;;;;;5051592;28;20032;-72
2022/04/09 01:46:07;;;;;;;2.63;1.25;;;12.80;94.20;;;;;;5051741;28;20142;-72
2022/04/09 01:48:33;;;;;;;1.25;0.95;;;12.80;94.50;;;;;;5051466;28;20029;-72
2022/04/09 01:50:58;;;;;;;1.98;0.90;;;12.80;94.70;;;;;;5051964;28;20025;-71
2022/04/09 01:53:24;;;;;;;1.08;0.90;;;12.80;94.70;;;;;;5051006;28;20076;-73
2022/04/09 01:55:50;;;;;;;3.50;1.20;;;12.80;94.80;;;;;;5050987;28;20060;-71
2022/04/09 01:58:15;;;;;;;1.52;1.08;;;12.70;95.20;;;;;;5051612;28;20037;-71
2022/04/09 02:00:41;;;;;;;1.25;0.95;;;12.70;95.30;;;;;;5051683;28;20021;-72
2022/04/09 02:03:07;;;;;;;2.00;1.20;;;12.70;95.60;;;;;;5051585;28;20048;-73
2022/04/09 02:05:34;;;;;;;1.65;0.93;;;12.70;96.10;;;;;;5051020;28;20031;-72
2022/04/09 02:08:01;;;;;;;3.70;1.20;;;12.60;96.20;;;;;;5051228;28;20029;-71
2022/04/09 02:10:27;;;;;;;3.33;1.10;;;12.60;96.60;;;;;;5050813;28;20032;-72
2022/04/09 02:12:53;;;;;;;1.63;1.30;;;12.60;96.70;;;;;;5051457;28;20090;-72
2022/04/09 02:15:19;;;;;;;3.88;1.20;;;12.60;96.90;;;;;;5050815;28;20037;-72
2022/04/09 02:17:45;;;;;;;2.05;1.10;;;12.60;97.20;;;;;;5052319;28;20029;-72
2022/04/09 02:20:12;;;;;;;2.13;1.15;;;12.50;97.20;;;;;;5055069;28;20025;-72
2022/04/09 02:22:40;;;;;;;2.17;1.00;;;12.50;97.30;;;;;;5054581;28;20250;-72
2022/04/09 02:25:12;;;;;;;2.35;1.13;;;12.50;97.60;;;;;;5055102;28;20038;-72
2022/04/09 02:27:37;;;;;;;;;;;12.40;97.50;;;;;;5054981;28;20082;-72
2022/04/09 02:30:05;;;;;;;1.73;0.95;;;12.40;97.50;;;;;;5055077;28;20405;-72
2022/04/09 02:32:31;;;;;;;4.43;1.23;;;12.40;97.50;;;;;;5054391;28;20175;-72
2022/04/09 02:34:57;;;;;;;2.10;0.95;;;12.40;97.50;;;;;;5054831;28;20483;-72
2022/04/09 02:37:23;;;;;;;3.40;1.35;;;12.40;97.40;;;;;;5054669;28;20040;-72
2022/04/09 02:39:49;;;;;;;4.85;1.45;;;12.30;97.50;;;;;;5055136;28;20029;-72
2022/04/09 02:42:15;;;;;;;2.15;1.27;;;12.30;97.90;;;;;;5054899;28;20384;-73
2022/04/09 02:44:43;;;;;;;1.15;0.90;;;12.30;98.10;;;;;;5054322;28;20565;-71
2022/04/09 02:47:09;;;;;;;3.53;1.25;;;12.30;98.30;;;;;;5054844;28;20188;-72
2022/04/09 02:49:34;;;;;;;3.40;1.00;;;12.30;98.40;;;;;;5054137;28;20139;-72
2022/04/09 02:52:00;;;;;;;1.45;1.30;;;12.30;98.40;;;;;;5054595;28;20028;-71
2022/04/09 02:54:25;;;;;;;2.63;1.00;;;12.30;98.50;;;;;;5053842;28;20069;-71
2022/04/09 02:56:51;;;;;;;1.80;1.10;;;12.30;98.40;;;;;;5052782;28;20049;-72
2022/04/09 02:59:16;;;;;;;2.38;1.30;;;12.30;98.50;;;;;;5054631;28;20025;-71
2022/04/09 03:01:45;;;;;;;2.10;1.30;;;12.20;98.40;;;;;;5053886;28;20051;-72
2022/04/09 03:04:12;;;;;;;4.32;1.83;;;12.20;98.90;;;;;;5054414;28;20029;-72
2022/04/09 03:06:37;;;;;;;2.90;1.30;;;12.20;99.00;;;;;;5053725;28;20442;-71
2022/04/09 03:09:03;;;;;;;2.83;1.30;;;12.10;99.20;;;;;;5054351;28;20048;-71
2022/04/09 03:11:29;;;;;;;2.80;1.10;;;12.10;99.20;;;;;;5053713;28;20104;-72
2022/04/09 03:13:55;;;;;;;2.67;1.10;;;12.10;99.40;;;;;;5054239;28;20045;-72
2022/04/09 03:16:20;;;;;;;3.30;1.30;;;12.10;99.50;;;;;;5054173;28;20473;-73
2022/04/09 03:18:46;;;;;;;2.30;1.50;;;12.10;99.60;;;;;;5053545;28;20017;-71
2022/04/09 03:21:11;;;;;;;2.80;1.30;;;12.10;99.80;;;;;;5054476;28;20033;-71
2022/04/09 03:23:37;;;;;;;2.53;1.33;;;12.10;99.90;;;;;;5053468;28;20029;-71
2022/04/09 03:26:05;;;;;;;2.33;1.35;;;12.00;99.90;;;;;;5054084;28;20029;-72
2022/04/09 03:28:30;;;;;;;2.67;1.30;;;12.00;99.90;;;;;;5051658;28;20078;-72
2022/04/09 03:30:56;;;;;;;5.88;1.83;;;12.00;99.90;;;;;;5053754;28;20408;-71
2022/04/09 03:33:22;;;;;;;3.90;1.50;;;12.00;99.90;;;;;;5053852;28;20025;-72
2022/04/09 03:35:48;;;;;;;5.25;1.90;;;12.00;99.90;;;;;;5052999;28;20096;-72
2022/04/09 03:38:14;;;;;;;3.85;1.77;;;11.90;99.90;;;;;;5053755;28;20124;-71
2022/04/09 03:40:40;;;;;;;3.53;1.70;;;11.90;99.90;;;;;;5053145;28;20116;-72
2022/04/09 03:43:06;;;;;;;4.70;2.08;;;12.00;99.90;;;;;;5054035;28;20033;-71
2022/04/09 03:45:32;;;;;;;3.20;1.73;;;12.00;99.90;;;;;;5053065;28;20143;-71
2022/04/09 03:47:57;;;;;;;2.92;1.98;;;12.00;99.90;;;;;;5053404;28;20029;-72
2022/04/09 03:50:23;;;;;;;6.22;1.88;;;12.00;99.90;;;;;;5053630;28;20065;-71
2022/04/09 03:52:49;;;;;;;2.00;1.70;;;12.00;99.90;;;;;;5051619;28;20057;-72
2022/04/09 03:55:15;;;;;;;5.47;2.08;;;12.00;99.90;;;;;;5053298;28;20044;-71
2022/04/09 03:57:41;;;;;;;3.47;2.00;;;12.00;99.90;;;;;;5052906;28;20065;-71
2022/04/09 04:00:08;;;;;;;5.18;2.28;;;12.00;99.90;;;;;;5053388;28;20108;-73
2022/04/09 04:02:34;;;;;;;3.60;2.25;;;12.00;99.90;;;;;;5052735;28;20040;-72
2022/04/09 04:05:02;;;;;;;3.60;2.38;;;12.00;99.90;;;;;;5053346;28;20025;-72
2022/04/09 04:07:30;;;;;;;4.13;1.95;;;11.90;99.90;;;;;;5052964;28;20028;-72
2022/04/09 04:09:56;;;;;;;2.28;1.83;;;11.90;99.90;;;;;;5053164;28;20117;-72
2022/04/09 04:12:21;;;;;;;4.68;2.53;;;11.80;99.90;;;;;;5053146;28;20040;-72
2022/04/09 04:14:47;;;;;;;3.33;1.77;;;11.80;99.90;;;;;;5052086;28;20124;-71
2022/04/09 04:17:12;;;;;;;3.03;1.70;;;11.80;99.90;;;;;;5053059;28;20104;-72
2022/04/09 04:19:39;;;;;;;3.13;1.80;;;11.80;99.90;;;;;;5052161;28;20112;-72
2022/04/09 04:22:07;;;;;;;3.72;1.70;;;11.80;99.90;;;;;;5052976;28;20469;-72
2022/04/09 04:24:37;;;;;;;4.60;1.73;;;11.80;99.90;;;;;;5052137;28;20040;-72
2022/04/09 04:27:04;;;;;;;3.63;1.60;;;11.80;99.90;;;;;;5052728;28;20061;-72
2022/04/09 04:29:29;;;;;;;3.25;1.52;;;11.80;99.90;;;;;;5052270;28;20465;-73
2022/04/09 04:31:55;;;;;;;3.30;2.30;;;11.80;99.90;;;;;;5052871;28;20025;-71
2022/04/09 04:34:20;;;;;;;2.20;1.33;;;11.80;99.90;;;;;;5052672;28;20116;-72
2022/04/09 04:36:46;;;;;;;5.10;1.35;;;11.80;99.90;;;;;;5052094;28;20083;-71
2022/04/09 04:39:12;;;;;;;5.40;1.42;;;11.80;99.90;;;;;;5052669;28;20025;-72
2022/04/09 04:41:38;;;;;;;3.03;1.48;;;11.80;99.90;;;;;;5051642;28;20112;-71
2022/04/09 04:44:04;;;;;;;2.30;1.50;;;11.80;99.90;;;;;;5052500;28;20118;-72
2022/04/09 04:46:29;;;;;;;3.63;1.75;;;11.80;99.90;;;;;;5052042;28;20029;-71
2022/04/09 04:48:55;;;;;;;2.00;1.35;;;11.90;99.90;;;;;;5052438;28;20327;-72
2022/04/09 04:51:21;;;;;;;2.97;1.40;;;11.90;99.90;;;;;;5052446;28;20451;-72
2022/04/09 04:53:46;;;;;;;3.20;1.20;;;11.90;99.90;;;;;;5051770;28;20029;-73
2022/04/09 04:56:13;;;;;;;2.17;1.02;;;11.90;99.90;;;;;;5051614;28;20507;-72
2022/04/09 04:58:38;;;;;;;1.20;0.90;;;11.90;99.90;;;;;;5051764;28;20026;-72
2022/04/09 05:01:05;;;;;;;3.10;1.10;;;11.90;99.90;;;;;;5052029;28;20025;-72
2022/04/09 05:03:31;;;;;;;2.00;1.10;;;11.90;99.90;;;;;;5051738;28;20075;-72
2022/04/09 05:05:57;;;;;;;1.83;1.08;;;11.90;99.90;;;;;;5052103;28;20029;-72
2022/04/09 05:08:22;;;;;;;2.00;1.00;;;11.90;99.90;;;;;;5052240;28;20100;-71
2022/04/09 05:10:48;;;;;;;1.75;0.60;;;11.90;99.90;;;;;;5051804;28;20401;-72
2022/04/09 05:13:14;;;;;;;1.30;1.00;;;11.90;99.90;;;;;;5050806;28;20503;-71
2022/04/09 05:15:39;;;;;;;2.10;0.68;;;12.00;99.90;;;;;;5051524;28;20036;-72
2022/04/09 05:18:05;;;;;;;0.93;0.60;;;12.00;99.10;;;;;;5052061;28;20366;-72
2022/04/09 05:20:31;;;;;;;0.70;0.60;;;12.10;96.30;;;;;;5051962;28;20053;-71
2022/04/09 05:22:56;;;;;;;0.90;0.60;;;12.10;95.40;;;;;;5051298;28;20035;-72
2022/04/09 05:25:22;;;;;;;0.82;0.50;;;12.20;93.90;;;;;;5051937;28;20033;-71
2022/04/09 05:27:49;;;;;;;0.75;0.55;;;12.20;92.80;;;;;;5051381;28;20025;-71
2022/04/09 05:30:15;;;;;;;2.90;0.60;;;12.30;92.80;;;;;;5051816;28;20151;-72
2022/04/09 05:32:41;;;;;;;1.05;0.70;;;12.30;91.30;;;;;;5051228;28;20036;-72
2022/04/09 05:35:08;;;;;;;1.10;0.50;;;12.30;90.60;;;;;;5051816;28;20041;-71
2022/04/09 05:37:34;;;;;;;4.03;0.50;;;12.30;90.40;;;;;;5051016;28;20387;-72
2022/04/09 05:39:59;;;;;;;2.88;0.60;;;12.30;90.10;;;;;;5051797;28;20021;-71
2022/04/09 05:42:25;;;;;;;0.52;0.45;;;12.30;90.30;;;;;;5051713;28;20033;-72
2022/04/09 05:44:55;;;;;;;1.55;0.60;;;12.30;88.80;;;;;;5048041;28;20036;-72
2022/04/09 05:47:20;;;;;;;0.70;0.63;;;12.30;89.70;;;;;;5051380;28;20033;-72
2022/04/09 05:49:47;;;;;;;1.60;0.75;;;12.30;89.40;;;;;;5050689;28;20021;-72
2022/04/09 05:52:13;;;;;;;1.25;0.68;;;12.30;87.60;;;;;;5051807;28;20025;-71
2022/04/09 05:54:39;;;;;;;0.95;0.60;;;12.30;88.00;;;;;;5054991;28;20029;-72
2022/04/09 05:57:05;;;;;;;1.23;0.73;;;12.20;88.10;;;;;;5055654;28;20044;-72
2022/04/09 05:59:31;;;;;;;0.95;0.50;;;12.20;88.30;;;;;;5055412;28;20094;-71
2022/04/09 06:01:57;;;;;;;0.90;0.57;;;12.00;88.00;;;;;;5054861;28;20403;-71
2022/04/09 06:04:23;;;;;;;0.90;0.75;;;11.70;85.30;;;;;;5055440;28;20029;-72
2022/04/09 06:06:49;;;;;;;0.55;0.52;;;11.40;84.90;;;;;;5054645;28;20522;-72
2022/04/09 06:09:15;;;;;;;1.70;0.93;;;11.20;85.10;;;;;;5055330;28;20052;-72
2022/04/09 06:11:44;;;;;;;1.52;0.70;;;10.90;86.50;;;;;;5054751;28;20025;-71
2022/04/09 06:14:09;;;;;;;1.02;0.80;;;10.60;89.80;;;;;;5054990;28;20040;-72
2022/04/09 06:16:38;;;;;;;0.73;0.60;;;10.40;90.20;;;;;;5054979;28;20028;-72
2022/04/09 06:19:05;;;;;;;0.70;0.70;;;10.30;90.20;;;;;;5055068;28;20028;-73
2022/04/09 06:21:32;;;;;;;0.75;0.70;;;10.10;88.50;;;;;;5054751;28;20099;-71
2022/04/09 06:23:58;;;;;;;0.80;0.60;;;9.90;89.10;;;;;;5054522;28;20037;-72
2022/04/09 06:26:24;;;;;;;0.63;0.60;;;9.70;86.50;;;;;;5054816;28;20083;-72
2022/04/09 06:28:50;;;;;;;1.13;0.60;;;9.30;84.40;;;;;;5052999;28;20472;-72
2022/04/09 06:31:16;;;;;;;2.38;0.60;;;9.20;86.30;;;;;;5054783;28;20021;-72
2022/04/09 06:33:41;;;;;;;0.73;0.52;;;9.10;84.50;;;;;;5054189;28;20068;-71
2022/04/09 06:36:08;;;;;;;0.98;0.50;;;9.10;85.70;;;;;;5054702;28;20021;-71
2022/04/09 06:38:34;;;;;;;2.35;0.65;;;8.90;83.80;;;;;;5054936;28;20112;-72
2022/04/09 06:40:59;;;;;;;1.23;0.60;;;8.80;83.80;;;;;;5054104;28;20112;-71
2022/04/09 06:43:26;;;;;;;1.15;0.63;;;8.80;83.80;;;;;;5054616;28;20377;-72
2022/04/09 06:45:52;;;;;;;1.23;0.90;;;8.70;83.70;;;;;;5054042;28;20033;-72
2022/04/09 06:48:18;;;;;;;1.98;0.88;;;8.70;83.20;;;;;;5054343;28;20114;-71
2022/04/09 06:50:44;;;;;;;0.93;0.90;;;8.50;82.00;;;;;;5052656;28;20028;-71
2022/04/09 06:53:10;;;;;;;2.15;0.90;;;8.40;83.80;;;;;;5054007;28;20032;-71
2022/04/09 06:55:35;;;;;;;1.25;1.10;;;8.30;83.20;;;;;;5054064;28;20490;-71
2022/04/09 06:58:02;;;;;;;1.35;1.25;;;8.20;83.30;;;;;;5053655;28;20025;-72
2022/04/09 07:00:28;;;;;;;3.10;1.80;;;8.20;84.10;;;;;;5054493;28;20044;-71
2022/04/09 07:02:53;;;;;;;3.03;2.13;;;8.10;82.80;;;;;;5053682;28;20029;-71
2022/04/09 07:05:19;;;;;;;4.03;2.20;;;8.10;83.20;;;;;;5053749;28;20206;-71
2022/04/09 07:07:48;;;;;;;3.00;2.75;;;7.90;83.70;;;;;;5053732;28;20144;-71
2022/04/09 07:10:15;;;;;;;3.97;3.60;;;7.80;82.90;;;;;;5054091;28;20462;-71
2022/04/09 07:12:41;;;;;;;3.58;3.20;;;7.70;83.40;;;;;;5053559;28;20420;-71
2022/04/09 07:15:07;;;;;;;4.13;3.83;;;7.70;84.00;;;;;;5053900;28;20044;-71
2022/04/09 07:17:33;;;;;;;6.30;3.78;;;7.60;83.00;;;;;;5054495;28;20031;-72
2022/04/09 07:20:02;;;;;;;6.03;4.38;;;7.60;83.30;;;;;;5044593;28;20327;-69
2022/04/09 07:22:28;;;;;;;5.00;4.50;;;7.60;82.40;;;;;;5033831;28;20105;-69
2022/04/09 07:24:54;;;;;;;4.53;4.07;;;7.60;81.60;;;;;;5033356;28;20113;-70
2022/04/09 07:27:22;;;;;;;3.92;3.47;;;7.50;81.60;;;;;;5033864;28;20029;-69
2022/04/09 07:29:48;;;;;;;5.57;3.10;;;7.50;81.60;;;;;;5032049;28;20413;-70
2022/04/09 07:32:14;;;;;;;3.72;2.63;;;7.40;80.00;;;;;;5033491;28;20025;-70
2022/04/09 07:34:39;;;;;;;3.80;3.15;;;7.40;80.50;;;;;;5032777;28;20029;-70
2022/04/09 07:37:05;;;;;;;3.78;2.78;;;7.40;80.40;;;;;;5031951;28;20038;-70
2022/04/09 07:39:31;;;;;;;3.65;2.42;;;7.50;80.80;;;;;;5034098;28;20029;-70
2022/04/09 07:41:57;;;;;;;2.72;2.45;;;7.50;79.60;;;;;;5048632;28;20125;-70
2022/04/09 07:44:23;;;;;;;5.60;3.13;;;7.50;80.50;;;;;;5033755;28;20029;-70
2022/04/09 07:46:50;;;;;;;3.33;2.75;;;7.60;79.50;;;;;;5033040;28;20112;-71
2022/04/09 07:49:15;;;;;;;2.58;2.28;;;7.60;79.80;;;;;;5033415;28;20029;-70
2022/04/09 07:51:41;;;;;;;2.08;1.88;;;7.60;79.40;;;;;;5033596;28;20029;-70
2022/04/09 07:54:07;;;;;;;1.70;1.60;;;7.60;79.90;;;;;;5033200;28;20041;-71
2022/04/09 07:56:33;;;;;;;2.15;1.90;;;7.60;79.80;;;;;;5033021;28;20080;-70
2022/04/09 07:58:58;;;;;;;1.98;1.80;;;7.70;80.60;;;;;;5032994;28;20029;-70
2022/04/09 08:01:24;;;;;;;2.55;1.58;;;7.80;80.30;;;;;;5033204;28;20036;-69
2022/04/09 08:03:50;;;;;;;3.15;1.77;;;7.70;78.70;;;;;;5032356;28;20029;-70
2022/04/09 08:06:16;;;;;;;2.28;1.55;;;7.80;80.00;;;;;;5033230;28;20433;-70
2022/04/09 08:08:41;;;;;;;1.52;1.40;;;7.80;77.60;;;;;;5033259;28;20105;-70
2022/04/09 08:11:07;;;;;;;2.72;1.75;;;7.80;76.80;;;;;;5032591;28;20045;-70
2022/04/09 08:13:33;;;;;;;2.45;1.70;;;7.80;77.00;;;;;;5032878;28;20422;-69
2022/04/09 08:15:59;;;;;;;2.50;1.50;;;7.80;77.60;;;;;;5031939;28;20397;-70
2022/04/09 08:18:25;;;;;;;1.65;1.55;;;7.80;77.10;;;;;;5033117;28;20060;-70
2022/04/09 08:20:52;;;;;;;4.13;1.73;;;7.80;74.90;;;;;;5032263;28;20025;-70
2022/04/09 08:23:17;;;;;;;4.03;1.67;;;7.70;76.40;;;;;;5042127;28;20025;-70
2022/04/09 08:25:43;;;;;;;2.70;1.77;;;7.80;77.20;;;;;;5052642;28;20025;-70
2022/04/09 08:28:09;;;;;;;1.83;1.73;;;7.80;76.70;;;;;;5051868;28;20037;-70
2022/04/09 08:30:53;;;;;;;3.80;2.15;;;7.90;75.70;;;;;;5052653;28;20028;-70
2022/04/09 08:33:19;;;;;;;2.78;2.33;;;7.90;75.30;;;;;;5052636;28;20025;-70
2022/04/09 08:35:46;;;;;;;3.92;2.25;;;7.90;75.00;;;;;;5052619;28;20532;-70
2022/04/09 08:38:11;;;;;;;4.72;3.17;;;8.00;74.50;;;;;;5052210;28;20473;-70
2022/04/09 08:40:38;;;;;;;3.05;2.70;;;7.90;74.80;;;;;;5052637;28;20116;-71
2022/04/09 08:43:04;;;;;;;4.57;3.15;;;8.00;75.60;;;;;;5051645;28;20523;-70
2022/04/09 08:45:36;;;;;;;5.30;3.67;;;7.90;73.70;;;;;;5052312;28;20036;-69
2022/04/09 08:48:05;;;;;;;5.57;3.60;;;8.00;74.90;;;;;;5051756;28;20025;-70
2022/04/09 08:50:31;;;;;;;5.20;4.15;;;8.00;74.20;;;;;;5052340;28;20120;-70
2022/04/09 08:52:58;;;;;;;5.00;4.13;;;8.10;75.20;;;;;;5051552;28;20033;-71
2022/04/09 08:55:23;;;;;;;5.40;4.32;;;8.10;74.60;;;;;;5051842;28;20374;-70
2022/04/09 08:57:49;;;;;;;6.82;4.18;;;8.10;73.10;;;;;;5051693;28;20025;-70
2022/04/09 09:00:17;;;;;;;5.18;4.68;;;8.20;73.00;;;;;;5052275;28;20029;-70
2022/04/09 09:02:54;;;;;;;6.60;4.90;;;8.10;72.10;;;;;;5052180;28;20033;-70
2022/04/09 09:05:38;;;;;;;5.53;4.97;;;8.00;72.20;;;;;;5052181;28;20477;-70
2022/04/09 09:08:34;;;;;;;8.73;5.35;;;8.10;71.80;;;;;;5051664;28;20127;-69
2022/04/09 09:11:00;;;;;;;6.30;5.10;;;8.10;72.50;;;;;;5050911;28;20083;-69
2022/04/09 09:13:26;;;;;;;7.43;5.45;;;8.20;72.70;;;;;;5051874;28;20024;-70
2022/04/09 09:15:53;;;;;;;7.93;5.57;;;8.20;71.60;;;;;;5051041;28;20025;-69
2022/04/09 09:18:26;;;;;;;7.25;5.25;;;8.20;71.80;;;;;;5051924;28;20033;-69
2022/04/09 09:20:54;;;;;;;6.90;5.22;;;8.20;71.80;;;;;;5051514;28;20040;-69
2022/04/09 09:23:24;;;;;;;8.02;6.53;;;8.10;72.40;;;;;;5051755;28;20489;-69
2022/04/09 09:25:52;;;;;;;10.70;6.07;;;8.10;72.50;;;;;;5051433;28;20056;-69
2022/04/09 09:28:28;;;;;;;7.15;6.45;;;8.10;73.00;;;;;;5050994;28;20044;-69
2022/04/09 09:30:56;;;;;;;7.72;5.57;;;8.20;72.80;;;;;;5051146;28;20029;-69
2022/04/09 09:33:21;;;;;;;7.57;5.28;;;8.20;73.20;;;;;;5052067;28;20075;-69
2022/04/09 09:35:48;;;;;;;6.05;5.22;;;8.20;73.20;;;;;;5051831;28;20459;-69
2022/04/09 09:38:33;;;;;;;5.88;5.28;;;8.10;73.50;;;;;;5051167;28;20032;-70
2022/04/09 09:41:01;;;;;;;5.45;4.93;;;8.00;74.40;;;;;;5051188;28;20028;-70
2022/04/09 09:43:27;;;;;;;4.43;3.97;;;8.00;74.40;;;;;;5051601;28;20454;-70
2022/04/09 09:45:54;;;;;;;4.47;4.07;;;8.00;74.20;;;;;;5051081;28;20029;-70
2022/04/09 09:48:26;;;;;;;6.88;4.57;;;8.00;74.70;;;;;;5051739;28;20029;-70
2022/04/09 09:50:57;;;;;;;5.05;4.32;;;8.10;74.60;;;;;;5050828;28;20032;-70
2022/04/09 09:53:33;;;;;;;6.15;4.50;;;8.10;74.80;;;;;;5051356;28;20029;-70
2022/04/09 09:56:00;;;;;;;4.55;4.15;;;8.00;74.70;;;;;;5050430;28;20053;-70
2022/04/09 09:58:29;;;;;;;4.57;4.18;;;7.90;75.20;;;;;;5051648;28;20112;-70
2022/04/09 10:00:59;;;;;;;4.30;3.90;;;7.90;74.60;;;;;;5051063;28;20029;-70
2022/04/09 10:03:27;;;;;;;6.63;4.78;;;8.00;74.90;;;;;;5051692;28;20025;-70
2022/04/09 10:05:53;;;;;;;6.07;5.03;;;8.10;75.00;;;;;;5050787;28;20029;-70
2022/04/09 10:08:20;;;;;;;7.18;5.00;;;8.10;74.50;;;;;;5051582;28;20028;-71
2022/04/09 10:10:48;;;;;;;5.07;4.57;;;8.10;74.50;;;;;;5051560;28;20113;-69
2022/04/09 10:13:21;;;;;;;5.30;4.30;;;8.20;75.50;;;;;;5050955;28;20466;-70
2022/04/09 10:15:50;;;;;;;5.18;4.32;;;8.20;75.10;;;;;;5050887;28;20465;-70
2022/04/09 10:18:23;;;;;;;6.70;4.85;;;8.10;73.40;;;;;;5050875;28;20083;-70
2022/04/09 10:21:00;;;;;;;5.22;4.68;;;8.20;73.60;;;;;;5051454;28;20117;-70
2022/04/09 10:23:32;;;;;;;6.32;3.85;;;8.20;73.80;;;;;;5051370;28;20027;-70
2022/04/09 10:26:02;;;;;;;5.50;4.72;;;8.10;73.60;;;;;;5050698;28;20107;-71
2022/04/09 10:28:31;;;;;;;6.82;4.88;;;8.10;74.40;;;;;;5051445;28;20126;-70
2022/04/09 10:30:57;;;;;;;5.78;4.75;;;8.20;74.50;;;;;;5050727;28;20025;-70
2022/04/09 10:33:26;;;;;;;6.70;5.35;;;8.20;75.20;;;;;;5051322;28;20525;-71
2022/04/09 10:35:52;;;;;;;8.32;5.35;;;8.30;74.80;;;;;;5051114;28;20038;-71
2022/04/09 10:38:23;;;;;;;5.75;5.15;;;8.30;74.10;;;;;;5051211;28;20070;-70
2022/04/09 10:40:57;;;;;;;7.97;5.20;;;8.40;74.00;;;;;;5054801;28;20520;-71
2022/04/09 10:43:26;;;;;;;6.57;5.00;;;8.40;73.00;;;;;;5054850;28;20029;-71
2022/04/09 10:46:00;;;;;;;6.47;5.50;;;8.40;72.70;;;;;;5054595;28;20021;-70
2022/04/09 10:48:34;;;;;;;6.38;5.28;;;8.50;72.40;;;;;;5054597;28;20075;-71
2022/04/09 10:51:01;;;;;;;9.70;5.35;;;8.60;72.40;;;;;;5053931;28;20426;-68
2022/04/09 10:53:29;;;;;;;10.23;5.60;;;8.60;72.30;;;;;;5054665;28;20485;-71
2022/04/09 10:56:32;;;;;;;5.78;5.28;;;8.60;72.70;;;;;;5054390;28;20407;-71
2022/04/09 10:59:13;;;;;;;7.00;5.10;;;8.60;71.80;;;;;;5052942;28;20441;-70
2022/04/09 11:01:59;;;;;;;7.93;5.60;;;8.60;70.90;;;;;;5054530;28;20109;-69
2022/04/09 11:07:09;;;;;;;9.50;5.30;;;8.60;71.00;;;;;;5054454;28;20033;-71
2022/04/09 11:09:40;;;;;;;7.20;5.32;;;8.60;71.80;;;;;;5054337;28;20098;-70
2022/04/09 11:12:06;;;;;;;10.73;5.50;;;8.60;72.10;;;;;;5033900;28;20119;-70
2022/04/09 11:14:42;;;;;;;8.77;5.80;;;8.60;72.00;;;;;;5034746;28;20071;-70
2022/04/09 11:17:18;;;;;;;7.10;5.07;;;8.70;72.60;;;;;;5033853;28;20032;-69
2022/04/09 11:19:45;;;;;;;5.80;4.75;;;8.80;71.80;;;;;;5034254;28;20029;-70
2022/04/09 11:22:11;;;;;;;5.35;4.47;;;8.90;71.00;;;;;;5033765;28;20467;-70
2022/04/09 11:24:38;;;;;;;7.18;4.43;;;9.00;69.40;;;;;;5034089;28;20034;-70
2022/04/09 11:27:04;;;;;;;7.30;4.70;;;9.00;68.80;;;;;;5033492;28;20026;-70
2022/04/09 11:29:34;;;;;;;5.97;3.88;;;9.00;67.20;;;;;;5034094;28;20026;-70
2022/04/09 11:32:00;;;;;;;6.88;4.18;;;9.00;65.50;;;;;;5033535;28;20025;-71
2022/04/09 11:34:26;;;;;;;8.00;4.00;;;9.00;65.80;;;;;;5033869;28;20037;-71
2022/04/09 11:37:11;;;;;;;6.95;4.55;;;8.90;63.90;;;;;;5034250;28;20029;-71
2022/04/09 11:39:41;;;;;;;5.32;3.88;;;8.90;64.10;;;;;;5033942;28;20048;-71
2022/04/09 11:42:07;;;;;;;7.30;3.92;;;8.90;64.00;;;;;;5033125;28;20083;-70
2022/04/09 11:44:32;;;;;;;8.25;4.28;;;9.00;64.00;;;;;;5033946;28;20438;-70
2022/04/09 11:47:08;;;;;;;5.72;3.83;;;9.00;63.90;;;;;;5033700;28;20022;-70
2022/04/09 11:49:34;;;;;;;7.85;4.10;;;9.00;64.50;;;;;;5033478;28;20049;-69
2022/04/09 11:51:59;;;;;;;4.90;4.10;;;9.00;64.90;;;;;;5032822;28;20065;-70
2022/04/09 11:54:29;;;;;;;7.32;4.25;;;9.00;64.40;;;;;;5033210;28;20148;-70
2022/04/09 11:56:55;;;;;;;5.75;4.13;;;9.10;63.70;;;;;;5033510;28;20060;-69
2022/04/09 11:59:20;;;;;;;6.93;3.72;;;9.00;63.00;;;;;;5033196;28;20034;-70
2022/04/09 12:01:46;;;;;;;5.20;3.80;;;9.00;63.50;;;;;;5032168;28;20404;-70
2022/04/09 12:04:14;;;;;;;7.35;4.13;;;9.10;63.10;;;;;;5046412;28;20036;-70
2022/04/09 12:06:40;;;;;;;5.75;3.58;;;9.10;63.80;;;;;;5053078;28;20044;-70
2022/04/09 12:09:06;;;;;;;5.82;3.53;;;9.10;63.00;;;;;;5052187;28;20075;-70
2022/04/09 12:11:32;;;;;;;8.70;3.67;;;9.10;62.80;;;;;;5052710;28;20082;-70
2022/04/09 12:14:15;;;;;;;4.90;3.30;;;9.20;63.00;;;;;;5052723;28;20044;-70
2022/04/09 12:16:41;;;;;;;7.88;3.58;;;9.10;62.20;;;;;;5052193;28;20039;-70
2022/04/09 12:19:07;;;;;;;6.78;3.13;;;9.10;61.40;;;;;;5051723;28;20107;-70
2022/04/09 12:21:35;;;;;;;6.20;3.42;;;9.10;61.70;;;;;;5052072;28;20104;-70
2022/04/09 12:24:08;;;;;;;4.65;3.40;;;9.10;61.20;;;;;;5052643;28;20049;-71
2022/04/09 12:26:39;;;;;;;5.35;3.85;;;9.10;61.20;;;;;;5049976;28;20051;-70
2022/04/09 12:29:08;;;;;;;3.75;2.97;;;9.20;61.30;;;;;;5051337;28;20087;-70
2022/04/09 12:31:35;;;;;;;7.25;3.42;;;9.20;61.00;;;;;;5052805;28;20033;-70
2022/04/09 12:34:01;;;;;;;4.78;3.20;;;9.30;60.60;;;;;;5052381;28;20036;-72
2022/04/09 12:36:27;;;;;;;5.75;3.33;;;9.40;59.50;;;;;;5051838;28;20036;-70
2022/04/09 12:38:53;;;;;;;5.22;2.90;;;9.40;59.20;;;;;;5052736;28;20108;-70
2022/04/09 12:41:18;;;;;;;4.63;3.13;;;9.50;59.10;;;;;;5052361;28;20060;-70
2022/04/09 12:43:46;;;;;;;4.80;2.35;;;9.50;59.10;;;;;;5052275;28;20044;-70
2022/04/09 12:46:14;;;;;;;7.72;2.88;;;9.60;59.40;;;;;;5051954;28;20029;-69
2022/04/09 12:49:00;;;;;;;4.10;2.65;;;9.60;59.50;;;;;;5052481;28;20036;-70
2022/04/09 12:51:27;;;;;;;4.13;2.50;;;9.50;58.30;;;;;;5051969;28;20020;-70
2022/04/09 12:53:53;;;;;;;4.53;2.70;;;9.50;58.20;;;;;;5052203;28;20390;-70
2022/04/09 12:56:19;;;;;;;5.13;3.00;;;9.50;58.30;;;;;;5051412;28;20048;-70